sensor_id;sensor_type;location;lat;lon;timestamp;pressure;altitude;pressure_sealevel;temperature;humidity
7668;BME280;3876;42.204;24.686;2023-03-03T00:01:12;99729.66;;;7.26;100.00
7668;BME280;3876;42.204;24.686;2023-03-03T00:03:39;99727.91;;;7.28;100.00
7668;BME280;3876;42.204;24.686;2023-03-03T00:06:08;99726.19;;;7.30;100.00
7668;BME280;3876;42.204;24.686;2023-03-03T00:08:36;99726.13;;;7.36;100.00
7668;BME280;3876;42.204;24.686;2023-03-03T00:11:03;99683.91;;;7.11;100.00
7668;BME280;3876;42.204;24.686;2023-03-03T00:13:31;99706.72;;;7.26;100.00
7668;BME280;3876;42.204;24.686;2023-03-03T00:16:12;99706.66;;;7.28;100.00
7668;BME280;3876;42.204;24.686;2023-03-03T00:18:42;99704.13;;;7.29;100.00
7668;BME280;3876;42.204;24.686;2023-03-03T00:21:21;99697.28;;;7.31;100.00
7668;BME280;3876;42.204;24.686;2023-03-03T00:23:50;99691.38;;;7.29;100.00
7668;BME280;3876;42.204;24.686;2023-03-03T00:26:21;99693.00;;;7.33;100.00
7668;BME280;3876;42.204;24.686;2023-03-03T00:28:50;99682.84;;;7.32;100.00
7668;BME280;3876;42.204;24.686;2023-03-03T00:31:19;99684.56;;;7.30;100.00
7668;BME280;3876;42.204;24.686;2023-03-03T00:33:49;99679.47;;;7.30;100.00
7668;BME280;3876;42.204;24.686;2023-03-03T00:36:28;99675.19;;;7.30;100.00
7668;BME280;3876;42.204;24.686;2023-03-03T00:39:08;99679.44;;;7.33;100.00
7668;BME280;3876;42.204;24.686;2023-03-03T00:41:38;99675.16;;;7.33;100.00
7668;BME280;3876;42.204;24.686;2023-03-03T00:44:31;99659.13;;;7.25;100.00
7668;BME280;3876;42.204;24.686;2023-03-03T00:47:12;99668.38;;;7.32;100.00
7668;BME280;3876;42.204;24.686;2023-03-03T00:49:41;99653.25;;;7.20;100.00
7668;BME280;3876;42.204;24.686;2023-03-03T00:52:13;99654.09;;;7.18;100.00
7668;BME280;3876;42.204;24.686;2023-03-03T00:54:41;99651.59;;;7.16;100.00
7668;BME280;3876;42.204;24.686;2023-03-03T00:57:08;99645.69;;;7.13;100.00
7668;BME280;3876;42.204;24.686;2023-03-03T00:59:37;99643.97;;;7.13;100.00
7668;BME280;3876;42.204;24.686;2023-03-03T01:02:04;99643.97;;;7.12;100.00
7668;BME280;3876;42.204;24.686;2023-03-03T01:04:31;99641.50;;;7.07;100.00
7668;BME280;3876;42.204;24.686;2023-03-03T01:06:58;99646.66;;;7.01;100.00
7668;BME280;3876;42.204;24.686;2023-03-03T01:09:26;99649.19;;;7.01;100.00
7668;BME280;3876;42.204;24.686;2023-03-03T01:11:53;99638.19;;;6.99;100.00
7668;BME280;3876;42.204;24.686;2023-03-03T01:14:20;99644.19;;;6.97;100.00
7668;BME280;3876;42.204;24.686;2023-03-03T01:16:47;99641.63;;;6.97;100.00
7668;BME280;3876;42.204;24.686;2023-03-03T01:19:14;99612.88;;;6.87;100.00
7668;BME280;3876;42.204;24.686;2023-03-03T01:21:41;99643.25;;;7.02;100.00
7668;BME280;3876;42.204;24.686;2023-03-03T01:24:08;99629.66;;;7.03;100.00
7668;BME280;3876;42.204;24.686;2023-03-03T01:26:36;99630.44;;;7.08;100.00
7668;BME280;3876;42.204;24.686;2023-03-03T01:29:03;99638.91;;;7.10;100.00
7668;BME280;3876;42.204;24.686;2023-03-03T01:31:30;99632.94;;;7.11;100.00
7668;BME280;3876;42.204;24.686;2023-03-03T01:33:56;99633.78;;;7.13;100.00
7668;BME280;3876;42.204;24.686;2023-03-03T01:36:23;99637.19;;;7.14;100.00
7668;BME280;3876;42.204;24.686;2023-03-03T01:38:50;99633.69;;;7.19;100.00
7668;BME280;3876;42.204;24.686;2023-03-03T01:41:18;99631.09;;;7.22;100.00
7668;BME280;3876;42.204;24.686;2023-03-03T01:43:47;99632.81;;;7.22;100.00
7668;BME280;3876;42.204;24.686;2023-03-03T01:46:40;99632.75;;;7.26;100.00
7668;BME280;3876;42.204;24.686;2023-03-03T01:49:13;99642.13;;;7.26;100.00
7668;BME280;3876;42.204;24.686;2023-03-03T01:51:46;99639.53;;;7.27;100.00
7668;BME280;3876;42.204;24.686;2023-03-03T01:54:18;99632.72;;;7.29;100.00
7668;BME280;3876;42.204;24.686;2023-03-03T01:56:48;99634.38;;;7.30;100.00
7668;BME280;3876;42.204;24.686;2023-03-03T01:59:18;99625.94;;;7.28;100.00
7668;BME280;3876;42.204;24.686;2023-03-03T02:01:47;99622.53;;;7.29;100.00
7668;BME280;3876;42.204;24.686;2023-03-03T02:04:14;99615.72;;;7.28;100.00
7668;BME280;3876;42.204;24.686;2023-03-03T02:06:44;99621.63;;;7.30;100.00
7668;BME280;3876;42.204;24.686;2023-03-03T02:09:17;99619.09;;;7.30;100.00
7668;BME280;3876;42.204;24.686;2023-03-03T02:11:50;99617.38;;;7.32;100.00
7668;BME280;3876;42.204;24.686;2023-03-03T02:14:19;99612.28;;;7.32;100.00
7668;BME280;3876;42.204;24.686;2023-03-03T02:16:46;99614.81;;;7.32;100.00
7668;BME280;3876;42.204;24.686;2023-03-03T02:19:20;99617.38;;;7.32;100.00
7668;BME280;3876;42.204;24.686;2023-03-03T02:21:48;99613.09;;;7.34;100.00
7668;BME280;3876;42.204;24.686;2023-03-03T02:24:23;99612.28;;;7.31;100.00
7668;BME280;3876;42.204;24.686;2023-03-03T02:26:53;99611.47;;;7.29;100.00
7668;BME280;3876;42.204;24.686;2023-03-03T02:29:20;99606.38;;;7.27;100.00
7668;BME280;3876;42.204;24.686;2023-03-03T02:31:47;99613.22;;;7.27;100.00
7668;BME280;3876;42.204;24.686;2023-03-03T02:34:14;99608.06;;;7.28;100.00
7668;BME280;3876;42.204;24.686;2023-03-03T02:36:41;99603.06;;;7.21;100.00
7668;BME280;3876;42.204;24.686;2023-03-03T02:39:10;99610.72;;;7.22;100.00
7668;BME280;3876;42.204;24.686;2023-03-03T02:41:40;99604.75;;;7.22;100.00
7668;BME280;3876;42.204;24.686;2023-03-03T02:44:11;99608.13;;;7.24;100.00
7668;BME280;3876;42.204;24.686;2023-03-03T02:46:40;99601.38;;;7.23;100.00
7668;BME280;3876;42.204;24.686;2023-03-03T02:49:09;99596.31;;;7.18;100.00
7668;BME280;3876;42.204;24.686;2023-03-03T02:51:37;99594.66;;;7.14;100.00
7668;BME280;3876;42.204;24.686;2023-03-03T02:54:05;99609.94;;;7.14;100.00
7668;BME280;3876;42.204;24.686;2023-03-03T02:56:32;99610.88;;;7.10;100.00
7668;BME280;3876;42.204;24.686;2023-03-03T02:58:59;99608.34;;;7.10;100.00
7668;BME280;3876;42.204;24.686;2023-03-03T03:01:27;99593.97;;;7.03;100.00
7668;BME280;3876;42.204;24.686;2023-03-03T03:03:56;99612.53;;;7.13;100.00
7668;BME280;3876;42.204;24.686;2023-03-03T03:06:23;99607.44;;;7.11;100.00
7668;BME280;3876;42.204;24.686;2023-03-03T03:08:50;99599.06;;;7.03;100.00
7668;BME280;3876;42.204;24.686;2023-03-03T03:11:16;99604.94;;;7.10;100.00
7668;BME280;3876;42.204;24.686;2023-03-03T03:13:43;99606.63;;;7.09;100.00
7668;BME280;3876;42.204;24.686;2023-03-03T03:16:10;99604.22;;;7.00;100.00
7668;BME280;3876;42.204;24.686;2023-03-03T03:18:38;99605.06;;;6.99;100.00
7668;BME280;3876;42.204;24.686;2023-03-03T03:21:07;99596.53;;;7.02;100.00
7668;BME280;3876;42.204;24.686;2023-03-03T03:23:34;99593.97;;;7.03;100.00
7668;BME280;3876;42.204;24.686;2023-03-03T03:26:01;99594.78;;;7.07;100.00
7668;BME280;3876;42.204;24.686;2023-03-03T03:28:28;99595.59;;;7.10;100.00
7668;BME280;3876;42.204;24.686;2023-03-03T03:30:55;99589.59;;;7.11;100.00
7668;BME280;3876;42.204;24.686;2023-03-03T03:33:22;99597.25;;;7.13;100.00
7668;BME280;3876;42.204;24.686;2023-03-03T03:35:50;99598.06;;;7.15;100.00
7668;BME280;3876;42.204;24.686;2023-03-03T03:38:17;99601.44;;;7.17;100.00
7668;BME280;3876;42.204;24.686;2023-03-03T03:40:44;99597.13;;;7.22;100.00
7668;BME280;3876;42.204;24.686;2023-03-03T03:43:11;99599.72;;;7.20;100.00
7668;BME280;3876;42.204;24.686;2023-03-03T03:45:38;99590.41;;;7.16;100.00
7668;BME280;3876;42.204;24.686;2023-03-03T03:48:05;99594.59;;;7.19;100.00
7668;BME280;3876;42.204;24.686;2023-03-03T03:50:32;99592.91;;;7.18;100.00
7668;BME280;3876;42.204;24.686;2023-03-03T03:53:00;99589.50;;;7.20;100.00
7668;BME280;3876;42.204;24.686;2023-03-03T03:55:27;99592.97;;;7.15;100.00
7668;BME280;3876;42.204;24.686;2023-03-03T03:57:54;99591.25;;;7.15;100.00
7668;BME280;3876;42.204;24.686;2023-03-03T04:00:21;99586.19;;;7.12;100.00
7668;BME280;3876;42.204;24.686;2023-03-03T04:02:48;99587.06;;;7.11;100.00
7668;BME280;3876;42.204;24.686;2023-03-03T04:05:15;99569.47;;;6.93;100.00
7668;BME280;3876;42.204;24.686;2023-03-03T04:07:43;99586.28;;;7.06;100.00
7668;BME280;3876;42.204;24.686;2023-03-03T04:10:11;99600.72;;;7.07;100.00
7668;BME280;3876;42.204;24.686;2023-03-03T04:12:38;99592.19;;;7.08;100.00
7668;BME280;3876;42.204;24.686;2023-03-03T04:15:07;99601.53;;;7.11;100.00
7668;BME280;3876;42.204;24.686;2023-03-03T04:17:35;99590.50;;;7.10;100.00
7668;BME280;3876;42.204;24.686;2023-03-03T04:20:02;99596.44;;;7.08;100.00
7668;BME280;3876;42.204;24.686;2023-03-03T04:22:30;99593.94;;;7.06;100.00
7668;BME280;3876;42.204;24.686;2023-03-03T04:24:58;99599.88;;;7.05;100.00
7668;BME280;3876;42.204;24.686;2023-03-03T04:27:26;99599.06;;;7.03;100.00
7668;BME280;3876;42.204;24.686;2023-03-03T04:29:53;99567.00;;;6.87;100.00
7668;BME280;3876;42.204;24.686;2023-03-03T04:32:19;99595.66;;;7.04;100.00
7668;BME280;3876;42.204;24.686;2023-03-03T04:34:46;99582.94;;;7.01;100.00
7668;BME280;3876;42.204;24.686;2023-03-03T04:37:13;99597.34;;;7.05;100.00
7668;BME280;3876;42.204;24.686;2023-03-03T04:39:40;99590.53;;;7.07;100.00
7668;BME280;3876;42.204;24.686;2023-03-03T04:42:07;99594.78;;;7.07;100.00
7668;BME280;3876;42.204;24.686;2023-03-03T04:44:35;99594.75;;;7.08;100.00
7668;BME280;3876;42.204;24.686;2023-03-03T04:47:01;99597.28;;;7.08;100.00
7668;BME280;3876;42.204;24.686;2023-03-03T04:49:28;99592.19;;;7.08;100.00
7668;BME280;3876;42.204;24.686;2023-03-03T04:51:55;99592.19;;;7.08;100.00
7668;BME280;3876;42.204;24.686;2023-03-03T04:54:22;99583.69;;;7.11;100.00
7668;BME280;3876;42.204;24.686;2023-03-03T04:56:49;99587.13;;;7.05;100.00
7668;BME280;3876;42.204;24.686;2023-03-03T04:59:16;99585.47;;;7.01;100.00
7668;BME280;3876;42.204;24.686;2023-03-03T05:01:44;99582.13;;;6.99;100.00
7668;BME280;3876;42.204;24.686;2023-03-03T05:04:11;99595.69;;;7.01;100.00
7668;BME280;3876;42.204;24.686;2023-03-03T05:06:41;99598.22;;;7.01;100.00
7668;BME280;3876;42.204;24.686;2023-03-03T05:09:08;99604.22;;;6.99;100.00
7668;BME280;3876;42.204;24.686;2023-03-03T05:11:35;99599.13;;;6.99;100.00
7668;BME280;3876;42.204;24.686;2023-03-03T05:14:02;99596.59;;;6.97;100.00
7668;BME280;3876;42.204;24.686;2023-03-03T05:16:28;99599.16;;;6.97;100.00
7668;BME280;3876;42.204;24.686;2023-03-03T05:18:57;99601.69;;;6.97;100.00
7668;BME280;3876;42.204;24.686;2023-03-03T05:21:23;99595.00;;;6.90;100.00
7668;BME280;3876;42.204;24.686;2023-03-03T05:23:50;99599.28;;;6.88;100.00
7668;BME280;3876;42.204;24.686;2023-03-03T05:26:17;99601.78;;;6.90;100.00
7668;BME280;3876;42.204;24.686;2023-03-03T05:28:43;99595.75;;;6.95;100.00
7668;BME280;3876;42.204;24.686;2023-03-03T05:31:10;99600.81;;;6.98;100.00
7668;BME280;3876;42.204;24.686;2023-03-03T05:33:37;99601.69;;;6.97;100.00
7668;BME280;3876;42.204;24.686;2023-03-03T05:36:06;99594.94;;;6.92;100.00
7668;BME280;3876;42.204;24.686;2023-03-03T05:38:33;99600.78;;;7.01;100.00
7668;BME280;3876;42.204;24.686;2023-03-03T05:41:00;99604.13;;;7.06;100.00
7668;BME280;3876;42.204;24.686;2023-03-03T05:43:27;99616.03;;;7.07;100.00
7668;BME280;3876;42.204;24.686;2023-03-03T05:45:54;99604.22;;;7.00;100.00
7668;BME280;3876;42.204;24.686;2023-03-03T05:48:21;99608.47;;;7.00;100.00
7668;BME280;3876;42.204;24.686;2023-03-03T05:50:48;99606.75;;;7.00;100.00
7668;BME280;3876;42.204;24.686;2023-03-03T05:53:16;99616.03;;;7.06;100.00
7668;BME280;3876;42.204;24.686;2023-03-03T05:55:43;99620.34;;;6.99;100.00
7668;BME280;3876;42.204;24.686;2023-03-03T05:58:10;99613.56;;;6.98;100.00
7668;BME280;3876;42.204;24.686;2023-03-03T06:00:37;99610.19;;;6.98;100.00
7668;BME280;3876;42.204;24.686;2023-03-03T06:03:04;99613.50;;;7.03;100.00
7668;BME280;3876;42.204;24.686;2023-03-03T06:05:31;99616.06;;;7.04;100.00
7668;BME280;3876;42.204;24.686;2023-03-03T06:07:57;99616.94;;;7.00;100.00
7668;BME280;3876;42.204;24.686;2023-03-03T06:10:26;99618.56;;;7.06;100.00
7668;BME280;3876;42.204;24.686;2023-03-03T06:12:53;99616.91;;;7.02;100.00
7668;BME280;3876;42.204;24.686;2023-03-03T06:15:20;99614.41;;;7.00;100.00
7668;BME280;3876;42.204;24.686;2023-03-03T06:17:47;99625.31;;;7.08;100.00
7668;BME280;3876;42.204;24.686;2023-03-03T06:20:14;99622.88;;;7.02;100.00
7668;BME280;3876;42.204;24.686;2023-03-03T06:22:41;99625.38;;;7.05;100.00
7668;BME280;3876;42.204;24.686;2023-03-03T06:25:08;99632.28;;;6.96;100.00
7668;BME280;3876;42.204;24.686;2023-03-03T06:27:36;99631.34;;;7.03;100.00
7668;BME280;3876;42.204;24.686;2023-03-03T06:30:04;99633.88;;;7.07;100.00
7668;BME280;3876;42.204;24.686;2023-03-03T06:32:31;99639.72;;;7.12;100.00
7668;BME280;3876;42.204;24.686;2023-03-03T06:34:57;99635.47;;;7.13;100.00
7668;BME280;3876;42.204;24.686;2023-03-03T06:37:24;99632.84;;;7.19;100.00
7668;BME280;3876;42.204;24.686;2023-03-03T06:39:51;99641.28;;;7.24;100.00
7668;BME280;3876;42.204;24.686;2023-03-03T06:42:18;99622.66;;;7.17;100.00
7668;BME280;3876;42.204;24.686;2023-03-03T06:44:47;99635.28;;;7.28;100.00
7668;BME280;3876;42.204;24.686;2023-03-03T06:47:14;99625.84;;;7.34;100.00
7668;BME280;3876;42.204;24.686;2023-03-03T06:49:41;99630.94;;;7.34;100.00
7668;BME280;3876;42.204;24.686;2023-03-03T06:52:11;99629.22;;;7.36;100.00
7668;BME280;3876;42.204;24.686;2023-03-03T06:54:38;99631.66;;;7.44;100.00
7668;BME280;3876;42.204;24.686;2023-03-03T06:57:15;99629.00;;;7.52;100.00
7668;BME280;3876;42.204;24.686;2023-03-03T06:59:42;99635.72;;;7.59;100.00
7668;BME280;3876;42.204;24.686;2023-03-03T07:02:15;99632.16;;;7.69;100.00
7668;BME280;3876;42.204;24.686;2023-03-03T07:04:43;99622.72;;;7.74;100.00
7668;BME280;3876;42.204;24.686;2023-03-03T07:07:15;99616.75;;;7.75;100.00
7668;BME280;3876;42.204;24.686;2023-03-03T07:09:47;99628.53;;;7.82;100.00
7668;BME280;3876;42.204;24.686;2023-03-03T07:12:15;99621.66;;;7.87;100.00
7668;BME280;3876;42.204;24.686;2023-03-03T07:14:45;99626.91;;;7.78;100.00
7668;BME280;3876;42.204;24.686;2023-03-03T07:17:16;99620.91;;;7.80;100.00
7668;BME280;3876;42.204;24.686;2023-03-03T07:19:44;99623.47;;;7.79;100.00
7668;BME280;3876;42.204;24.686;2023-03-03T07:22:14;99628.72;;;7.70;100.00
7668;BME280;3876;42.204;24.686;2023-03-03T07:24:43;99626.09;;;7.76;100.00
7668;BME280;3876;42.204;24.686;2023-03-03T07:27:13;99631.97;;;7.81;100.00
7668;BME280;3876;42.204;24.686;2023-03-03T07:29:46;99621.88;;;7.73;100.00
7668;BME280;3876;42.204;24.686;2023-03-03T07:32:23;99630.44;;;7.71;100.00
7668;BME280;3876;42.204;24.686;2023-03-03T07:34:53;99608.41;;;7.64;100.00
7668;BME280;3876;42.204;24.686;2023-03-03T07:37:27;99626.94;;;7.76;100.00
7668;BME280;3876;42.204;24.686;2023-03-03T07:39:55;99629.44;;;7.81;100.00
7668;BME280;3876;42.204;24.686;2023-03-03T07:42:24;99627.63;;;7.87;100.00
7668;BME280;3876;42.204;24.686;2023-03-03T07:44:54;99624.84;;;8.01;100.00
7668;BME280;3876;42.204;24.686;2023-03-03T07:47:25;99618.09;;;7.97;100.00
7668;BME280;3876;42.204;24.686;2023-03-03T07:49:54;99627.44;;;7.98;100.00
7668;BME280;3876;42.204;24.686;2023-03-03T07:52:27;99626.47;;;8.05;100.00
7668;BME280;3876;42.204;24.686;2023-03-03T07:54:56;99612.00;;;8.06;100.00
7668;BME280;3876;42.204;24.686;2023-03-03T07:57:25;99627.09;;;8.19;100.00
7668;BME280;3876;42.204;24.686;2023-03-03T07:59:54;99625.53;;;8.11;100.00
7668;BME280;3876;42.204;24.686;2023-03-03T08:02:38;99622.91;;;8.15;100.00
7668;BME280;3876;42.204;24.686;2023-03-03T08:05:30;99622.84;;;8.18;100.00
7668;BME280;3876;42.204;24.686;2023-03-03T08:08:17;99623.75;;;8.16;100.00
7668;BME280;3876;42.204;24.686;2023-03-03T08:10:47;99622.09;;;8.13;100.00
7668;BME280;3876;42.204;24.686;2023-03-03T08:13:19;99616.09;;;8.16;100.00
7668;BME280;3876;42.204;24.686;2023-03-03T08:15:48;99618.66;;;8.14;100.00
7668;BME280;3876;42.204;24.686;2023-03-03T08:18:22;99614.66;;;8.01;100.00
7668;BME280;3876;42.204;24.686;2023-03-03T08:20:55;99589.44;;;7.80;100.00
7668;BME280;3876;42.204;24.686;2023-03-03T08:23:22;99604.56;;;7.92;100.00
7668;BME280;3876;42.204;24.686;2023-03-03T08:25:50;99604.44;;;8.01;100.00
7668;BME280;3876;42.204;24.686;2023-03-03T08:28:18;99603.44;;;8.08;100.00
7668;BME280;3876;42.204;24.686;2023-03-03T08:30:45;99576.44;;;7.95;100.00
7668;BME280;3876;42.204;24.686;2023-03-03T08:33:13;99592.38;;;8.09;100.00
7668;BME280;3876;42.204;24.686;2023-03-03T08:35:41;99593.78;;;8.25;100.00
7668;BME280;3876;42.204;24.686;2023-03-03T08:38:09;99594.56;;;8.32;100.00
7668;BME280;3876;42.204;24.686;2023-03-03T08:40:36;99590.22;;;8.35;100.00
7668;BME280;3876;42.204;24.686;2023-03-03T08:43:03;99585.13;;;8.34;100.00
7668;BME280;3876;42.204;24.686;2023-03-03T08:45:31;99590.22;;;8.35;100.00
7668;BME280;3876;42.204;24.686;2023-03-03T08:47:59;99581.66;;;8.38;100.00
7668;BME280;3876;42.204;24.686;2023-03-03T08:50:27;99583.19;;;8.47;100.00
7668;BME280;3876;42.204;24.686;2023-03-03T08:52:56;99558.00;;;8.30;100.00
7668;BME280;3876;42.204;24.686;2023-03-03T08:55:23;99581.59;;;8.42;100.00
7668;BME280;3876;42.204;24.686;2023-03-03T08:57:49;99583.25;;;8.43;100.00
7668;BME280;3876;42.204;24.686;2023-03-03T09:00:18;99586.66;;;8.46;100.00
7668;BME280;3876;42.204;24.686;2023-03-03T09:02:45;99580.69;;;8.45;100.00
7668;BME280;3876;42.204;24.686;2023-03-03T09:05:12;99578.19;;;8.42;100.00
7668;BME280;3876;42.204;24.686;2023-03-03T09:07:39;99581.47;;;8.49;100.00
7668;BME280;3876;42.204;24.686;2023-03-03T09:10:09;99578.06;;;8.50;100.00
7668;BME280;3876;42.204;24.686;2023-03-03T09:12:38;99581.47;;;8.49;100.00
7668;BME280;3876;42.204;24.686;2023-03-03T09:15:20;99573.75;;;8.50;100.00
7668;BME280;3876;42.204;24.686;2023-03-03T09:17:48;99574.66;;;8.48;100.00
7668;BME280;3876;42.204;24.686;2023-03-03T09:20:30;99573.88;;;8.46;100.00
7668;BME280;3876;42.204;24.686;2023-03-03T09:22:58;99575.59;;;8.43;100.00
7668;BME280;3876;42.204;24.686;2023-03-03T09:25:31;99568.94;;;8.35;100.00
7668;BME280;3876;42.204;24.686;2023-03-03T09:27:59;99577.38;;;8.40;100.00
7668;BME280;3876;42.204;24.686;2023-03-03T09:30:36;99563.00;;;8.34;100.00
7668;BME280;3876;42.204;24.686;2023-03-03T09:33:23;99567.94;;;8.43;100.00
7668;BME280;3876;42.204;24.686;2023-03-03T09:35:57;99567.06;;;8.46;100.00
7668;BME280;3876;42.204;24.686;2023-03-03T09:38:28;99569.56;;;8.48;100.00
7668;BME280;3876;42.204;24.686;2023-03-03T09:41:26;99557.66;;;8.47;100.00
7668;BME280;3876;42.204;24.686;2023-03-03T09:44:21;99566.09;;;8.52;100.00
7668;BME280;3876;42.204;24.686;2023-03-03T09:47:03;99571.38;;;8.42;100.00
7668;BME280;3876;42.204;24.686;2023-03-03T09:49:39;99562.19;;;8.32;100.00
7668;BME280;3876;42.204;24.686;2023-03-03T09:52:22;99566.72;;;8.15;100.00
7668;BME280;3876;42.204;24.686;2023-03-03T09:54:57;99560.75;;;8.16;100.00
7668;BME280;3876;42.204;24.686;2023-03-03T09:57:37;99558.31;;;8.10;100.00
7668;BME280;3876;42.204;24.686;2023-03-03T10:00:21;99558.31;;;8.10;100.00
7668;BME280;3876;42.204;24.686;2023-03-03T10:03:09;99550.78;;;8.04;100.00
7668;BME280;3876;42.204;24.686;2023-03-03T10:05:46;99551.63;;;8.02;100.00
7668;BME280;3876;42.204;24.686;2023-03-03T10:08:40;99548.28;;;8.01;100.00
7668;BME280;3876;42.204;24.686;2023-03-03T10:11:17;99554.31;;;7.96;100.00
7668;BME280;3876;42.204;24.686;2023-03-03T10:14:10;99551.72;;;7.97;100.00
7668;BME280;3876;42.204;24.686;2023-03-03T10:17:10;99549.97;;;7.99;100.00
7668;BME280;3876;42.204;24.686;2023-03-03T10:19:48;99525.53;;;7.86;100.00
7668;BME280;3876;42.204;24.686;2023-03-03T10:22:23;99544.03;;;8.00;100.00
7668;BME280;3876;42.204;24.686;2023-03-03T10:25:16;99540.47;;;8.09;100.00
7668;BME280;3876;42.204;24.686;2023-03-03T10:27:57;99536.91;;;8.17;100.00
7668;BME280;3876;42.204;24.686;2023-03-03T10:30:38;99535.91;;;8.24;100.00
7668;BME280;3876;42.204;24.686;2023-03-03T10:33:13;99535.88;;;8.29;100.00
7668;BME280;3876;42.204;24.686;2023-03-03T10:38:37;99532.22;;;8.40;100.00
7668;BME280;3876;42.204;24.686;2023-03-03T10:41:21;99521.13;;;8.43;100.00
7668;BME280;3876;42.204;24.686;2023-03-03T10:44:04;99530.56;;;8.39;100.00
7668;BME280;3876;42.204;24.686;2023-03-03T10:46:54;99523.63;;;8.44;100.00
7668;BME280;3876;42.204;24.686;2023-03-03T10:49:41;99523.56;;;8.48;100.00
7668;BME280;3876;42.204;24.686;2023-03-03T10:52:20;99506.81;;;8.34;100.00
7668;BME280;3876;42.204;24.686;2023-03-03T10:55:04;99504.09;;;8.42;100.00
7668;BME280;3876;42.204;24.686;2023-03-03T10:57:37;99505.63;;;8.51;100.00
7668;BME280;3876;42.204;24.686;2023-03-03T11:00:16;99513.16;;;8.58;100.00
7668;BME280;3876;42.204;24.686;2023-03-03T11:03:05;99508.81;;;8.62;100.00
7668;BME280;3876;42.204;24.686;2023-03-03T11:05:40;99501.75;;;8.73;100.00
7668;BME280;3876;42.204;24.686;2023-03-03T11:08:12;99471.16;;;8.70;100.00
7668;BME280;3876;42.204;24.686;2023-03-03T11:10:50;99488.53;;;8.94;100.00
7668;BME280;3876;42.204;24.686;2023-03-03T11:13:21;99469.88;;;8.89;100.00
7668;BME280;3876;42.204;24.686;2023-03-03T11:16:03;99494.22;;;9.07;100.00
7668;BME280;3876;42.204;24.686;2023-03-03T11:18:43;99488.09;;;9.12;100.00
7668;BME280;3876;42.204;24.686;2023-03-03T11:21:19;99486.38;;;9.14;100.00
7668;BME280;3876;42.204;24.686;2023-03-03T11:24:14;99483.75;;;9.17;100.00
7668;BME280;3876;42.204;24.686;2023-03-03T11:26:56;99463.53;;;9.07;100.00
7668;BME280;3876;42.204;24.686;2023-03-03T11:29:37;99490.56;;;9.17;100.00
7668;BME280;3876;42.204;24.686;2023-03-03T11:32:19;99482.78;;;9.21;100.00
7668;BME280;3876;42.204;24.686;2023-03-03T11:35:01;99484.38;;;9.27;100.00
7668;BME280;3876;42.204;24.686;2023-03-03T11:37:38;99478.28;;;9.31;100.00
7668;BME280;3876;42.204;24.686;2023-03-03T11:40:13;99478.47;;;9.23;100.00
7668;BME280;3876;42.204;24.686;2023-03-03T11:42:51;99479.97;;;9.32;100.00
7668;BME280;3876;42.204;24.686;2023-03-03T11:45:23;99478.09;;;9.38;100.00
7668;BME280;3876;42.204;24.686;2023-03-03T11:47:58;99471.97;;;9.45;100.00
7668;BME280;3876;42.204;24.686;2023-03-03T11:50:33;99462.44;;;9.50;100.00
7668;BME280;3876;42.204;24.686;2023-03-03T11:53:08;99459.00;;;9.53;100.00
7668;BME280;3876;42.204;24.686;2023-03-03T11:55:41;99457.31;;;9.50;100.00
7668;BME280;3876;42.204;24.686;2023-03-03T11:58:13;99457.91;;;9.62;100.00
7668;BME280;3876;42.204;24.686;2023-03-03T12:00:46;99457.84;;;9.65;100.00
7668;BME280;3876;42.204;24.686;2023-03-03T12:03:20;99449.91;;;9.74;100.00
7668;BME280;3876;42.204;24.686;2023-03-03T12:05:57;99453.22;;;9.79;100.00
7668;BME280;3876;42.204;24.686;2023-03-03T12:08:43;99452.31;;;9.80;100.00
7668;BME280;3876;42.204;24.686;2023-03-03T12:11:15;99450.56;;;9.82;100.00
7668;BME280;3876;42.204;24.686;2023-03-03T12:13:53;99447.94;;;9.85;100.00
7668;BME280;3876;42.204;24.686;2023-03-03T12:16:32;99446.81;;;9.61;100.00
7668;BME280;3876;42.204;24.686;2023-03-03T12:19:23;99451.69;;;9.72;100.00
7668;BME280;3876;42.204;24.686;2023-03-03T12:22:08;99446.44;;;9.76;100.00
7668;BME280;3876;42.204;24.686;2023-03-03T12:24:46;99440.31;;;9.82;100.00
7668;BME280;3876;42.204;24.686;2023-03-03T12:27:22;99429.09;;;9.86;100.00
7668;BME280;3876;42.204;24.686;2023-03-03T12:30:02;99434.78;;;9.97;100.00
7668;BME280;3876;42.204;24.686;2023-03-03T12:32:42;99434.44;;;10.09;100.00
7668;BME280;3876;42.204;24.686;2023-03-03T12:35:19;99438.59;;;10.13;100.00
7668;BME280;3876;42.204;24.686;2023-03-03T12:37:57;99432.69;;;10.11;100.00
7668;BME280;3876;42.204;24.686;2023-03-03T12:40:31;99441.34;;;10.07;100.00
7668;BME280;3876;42.204;24.686;2023-03-03T12:43:16;99445.03;;;9.97;100.00
7668;BME280;3876;42.204;24.686;2023-03-03T12:45:55;99424.06;;;9.83;100.00
7668;BME280;3876;42.204;24.686;2023-03-03T12:48:33;99439.81;;;10.00;100.00
7668;BME280;3876;42.204;24.686;2023-03-03T12:51:09;99440.56;;;10.03;100.00
7668;BME280;3876;42.204;24.686;2023-03-03T12:53:51;99444.53;;;10.15;100.00
7668;BME280;3876;42.204;24.686;2023-03-03T12:56:26;99449.91;;;10.06;100.00
7668;BME280;3876;42.204;24.686;2023-03-03T12:59:02;99417.47;;;10.05;100.00
7668;BME280;3876;42.204;24.686;2023-03-03T13:01:47;99429.84;;;10.22;100.00
7668;BME280;3876;42.204;24.686;2023-03-03T13:04:28;99428.03;;;10.25;100.00
7668;BME280;3876;42.204;24.686;2023-03-03T13:07:04;99426.16;;;10.32;100.00
7668;BME280;3876;42.204;24.686;2023-03-03T13:09:50;99426.91;;;10.35;100.00
7668;BME280;3876;42.204;24.686;2023-03-03T13:12:30;99431.06;;;10.39;100.00
7668;BME280;3876;42.204;24.686;2023-03-03T13:15:05;99432.03;;;10.35;100.00
7668;BME280;3876;42.204;24.686;2023-03-03T13:17:40;99425.47;;;10.25;100.00
7668;BME280;3876;42.204;24.686;2023-03-03T13:20:20;99420.34;;;10.25;100.00
7668;BME280;3876;42.204;24.686;2023-03-03T13:22:50;99431.16;;;10.36;100.00
7668;BME280;3876;42.204;24.686;2023-03-03T13:28:21;99417.22;;;10.45;100.00
7668;BME280;3876;42.204;24.686;2023-03-03T13:30:55;99414.53;;;10.49;100.00
7668;BME280;3876;42.204;24.686;2023-03-03T13:33:25;99413.03;;;10.42;100.00
7668;BME280;3876;42.204;24.686;2023-03-03T13:35:55;99420.53;;;10.19;97.70
7668;BME280;3876;42.204;24.686;2023-03-03T13:38:26;99420.94;;;10.04;96.59
7668;BME280;3876;42.204;24.686;2023-03-03T13:41:03;99410.69;;;10.04;97.54